createdAt,value
2018-02-14T00:00:29.274Z,5.80
2018-02-14T00:01:29.210Z,6.10
2018-02-14T00:02:29.144Z,6.10
2018-02-14T00:03:29.081Z,6.50
2018-02-14T00:04:29.018Z,6.40
2018-02-14T00:05:28.951Z,6.10
2018-02-14T00:06:28.885Z,5.90
2018-02-14T00:07:28.828Z,6.00
2018-02-14T00:08:28.755Z,5.60
2018-02-14T00:09:28.692Z,5.80
2018-02-14T00:10:28.629Z,5.60
2018-02-14T00:11:28.561Z,5.60
2018-02-14T00:12:28.497Z,5.70
2018-02-14T00:13:28.433Z,6.30
2018-02-14T00:14:28.368Z,5.60
2018-02-14T00:15:28.303Z,5.90
2018-02-14T00:16:28.240Z,5.40
2018-02-14T00:17:28.173Z,5.40
2018-02-14T00:18:28.108Z,5.70
2018-02-14T00:19:28.045Z,5.40
2018-02-14T00:20:27.978Z,5.30
2018-02-14T00:21:27.915Z,5.10
2018-02-14T00:22:27.850Z,5.30
2018-02-14T00:23:27.784Z,5.60
2018-02-14T00:24:27.722Z,5.80
2018-02-14T00:25:27.654Z,5.60
2018-02-14T00:26:27.588Z,5.90
2018-02-14T00:27:27.523Z,6.00
2018-02-14T00:28:27.458Z,5.70
2018-02-14T00:29:27.394Z,6.00
2018-02-14T00:30:27.329Z,6.00
2018-02-14T00:31:27.264Z,6.00
2018-02-14T00:32:27.198Z,5.60
2018-02-14T00:33:27.134Z,5.80
2018-02-14T00:34:27.072Z,6.00
2018-02-14T00:35:27.004Z,5.80
2018-02-14T00:36:26.938Z,5.80
2018-02-14T00:37:26.875Z,6.30
2018-02-14T00:38:26.808Z,6.30
2018-02-14T00:39:26.746Z,6.30
2018-02-14T00:40:26.677Z,6.50
2018-02-14T00:41:26.613Z,6.00
2018-02-14T00:42:26.548Z,6.20
2018-02-14T00:43:26.482Z,6.00
2018-02-14T00:44:26.418Z,6.20
2018-02-14T00:45:26.356Z,6.50
2018-02-14T00:46:26.287Z,6.10
2018-02-14T00:47:26.223Z,6.20
2018-02-14T00:48:26.157Z,5.90
2018-02-14T00:49:26.092Z,7.20
2018-02-14T00:50:26.027Z,6.10
2018-02-14T00:51:25.962Z,6.70
2018-02-14T00:52:25.897Z,6.00
2018-02-14T00:53:25.832Z,6.40
2018-02-14T00:54:25.766Z,5.80
2018-02-14T00:55:25.700Z,6.00
2018-02-14T00:56:25.636Z,6.10
2018-02-14T00:57:25.571Z,6.00
2018-02-14T00:58:25.505Z,6.00
2018-02-14T00:59:25.441Z,6.70
2018-02-14T01:00:25.375Z,7.00
2018-02-14T01:01:25.310Z,6.70
2018-02-14T01:02:25.246Z,7.00
2018-02-14T01:03:25.180Z,6.80
2018-02-14T01:04:25.114Z,6.60
2018-02-14T01:05:25.049Z,6.80
2018-02-14T01:06:24.983Z,7.10
2018-02-14T01:07:24.921Z,7.20
2018-02-14T01:08:24.854Z,6.60
2018-02-14T01:09:24.790Z,7.10
2018-02-14T01:10:24.724Z,7.40
2018-02-14T01:11:24.658Z,7.50
2018-02-14T01:12:24.592Z,7.10
2018-02-14T01:13:24.528Z,7.40
2018-02-14T01:14:24.464Z,7.60
2018-02-14T01:15:24.397Z,7.20
2018-02-14T01:16:24.331Z,8.00
2018-02-14T01:17:24.276Z,7.40
2018-02-14T01:18:24.201Z,7.10
2018-02-14T01:19:24.138Z,6.60
2018-02-14T01:20:24.072Z,7.30
2018-02-14T01:21:24.007Z,7.60
2018-02-14T01:22:23.943Z,7.10
2018-02-14T01:23:23.876Z,7.20
2018-02-14T01:24:23.812Z,7.50
2018-02-14T01:25:23.747Z,7.50
2018-02-14T01:26:23.683Z,7.50
2018-02-14T01:27:23.622Z,7.00
2018-02-14T01:28:23.550Z,7.40
2018-02-14T01:29:23.488Z,7.20
2018-02-14T01:30:23.423Z,7.40
2018-02-14T01:31:23.359Z,7.50
2018-02-14T01:32:23.294Z,7.60
2018-02-14T01:33:23.227Z,6.80
2018-02-14T01:34:23.159Z,6.70
2018-02-14T01:35:23.095Z,7.00
2018-02-14T01:36:23.034Z,6.80
2018-02-14T01:37:22.967Z,7.40
2018-02-14T01:38:22.900Z,7.00
2018-02-14T01:39:22.835Z,7.50
2018-02-14T01:40:22.772Z,6.90
2018-02-14T01:41:22.704Z,7.20
2018-02-14T01:42:22.640Z,7.20
2018-02-14T01:43:22.575Z,7.00
2018-02-14T01:44:22.510Z,7.50
2018-02-14T01:45:22.444Z,7.30
2018-02-14T01:46:22.380Z,7.50
2018-02-14T01:47:22.313Z,7.40
2018-02-14T01:48:22.249Z,7.20
2018-02-14T01:49:22.186Z,6.90
2018-02-14T01:50:22.118Z,7.50
2018-02-14T01:51:22.058Z,7.30
2018-02-14T01:52:21.988Z,7.30
2018-02-14T01:53:21.925Z,7.60
2018-02-14T01:54:21.859Z,7.40
2018-02-14T01:55:21.795Z,7.10
2018-02-14T01:56:21.728Z,7.20
2018-02-14T01:57:21.666Z,7.80
2018-02-14T01:58:21.598Z,7.30
2018-02-14T01:59:21.531Z,6.80
2018-02-14T02:00:21.470Z,7.60
2018-02-14T02:01:21.405Z,7.60
2018-02-14T02:02:21.338Z,7.60
2018-02-14T02:03:21.274Z,7.00
2018-02-14T02:04:21.210Z,7.40
2018-02-14T02:05:21.142Z,7.20
2018-02-14T02:06:21.080Z,7.30
2018-02-14T02:07:21.013Z,7.00
2018-02-14T02:08:20.944Z,7.80
2018-02-14T02:09:20.881Z,7.10
2018-02-14T02:10:20.820Z,8.00
2018-02-14T02:11:20.751Z,7.30
2018-02-14T02:12:20.685Z,7.50
2018-02-14T02:13:20.622Z,7.80
2018-02-14T02:14:20.559Z,7.20
2018-02-14T02:15:20.490Z,7.70
2018-02-14T02:16:20.423Z,7.70
2018-02-14T02:17:20.359Z,7.70
2018-02-14T02:18:20.295Z,7.20
2018-02-14T02:19:20.230Z,6.90
2018-02-14T02:20:20.163Z,7.30
2018-02-14T02:21:20.097Z,7.10
2018-02-14T02:22:20.031Z,7.40
2018-02-14T02:23:19.972Z,7.70
2018-02-14T02:24:19.902Z,7.60
2018-02-14T02:25:19.836Z,7.80
2018-02-14T02:26:19.772Z,7.70
2018-02-14T02:27:19.706Z,7.70
2018-02-14T02:28:19.641Z,6.90
2018-02-14T02:29:19.575Z,8.00
2018-02-14T02:30:19.514Z,7.00
2018-02-14T02:31:19.442Z,7.50
2018-02-14T02:32:19.382Z,7.90
2018-02-14T02:33:19.318Z,7.50
2018-02-14T02:34:19.251Z,7.60
2018-02-14T02:35:19.190Z,7.50
2018-02-14T02:36:19.124Z,6.80
2018-02-14T02:37:19.053Z,6.70
2018-02-14T02:38:18.987Z,7.60
2018-02-14T02:39:18.923Z,6.80
2018-02-14T02:40:18.862Z,6.90
2018-02-14T02:41:18.793Z,6.90
2018-02-14T02:42:18.728Z,7.00
2018-02-14T02:43:18.663Z,7.30
2018-02-14T02:44:18.598Z,7.50
2018-02-14T02:45:18.531Z,7.10
2018-02-14T02:46:18.468Z,6.80
2018-02-14T02:47:18.402Z,7.10
2018-02-14T02:48:18.334Z,7.00
2018-02-14T02:49:18.269Z,7.50
2018-02-14T02:50:18.207Z,7.20
2018-02-14T02:51:18.143Z,6.90
2018-02-14T02:52:18.076Z,7.30
2018-02-14T02:53:18.009Z,7.70
2018-02-14T02:54:17.945Z,7.70
2018-02-14T02:55:17.899Z,6.80
2018-02-14T02:56:17.812Z,7.20
2018-02-14T02:57:17.749Z,6.90
2018-02-14T02:58:17.684Z,7.00
2018-02-14T02:59:17.617Z,7.30
2018-02-14T03:00:17.554Z,7.40
2018-02-14T03:01:17.491Z,7.00
2018-02-14T03:02:17.423Z,7.90
2018-02-14T03:03:17.362Z,7.50
2018-02-14T03:04:17.292Z,7.10
2018-02-14T03:05:17.227Z,7.20
2018-02-14T03:06:17.160Z,7.10
2018-02-14T03:07:17.095Z,7.10
2018-02-14T03:08:17.033Z,7.00
2018-02-14T03:09:16.970Z,8.10
2018-02-14T03:10:16.900Z,7.20
2018-02-14T03:11:16.836Z,7.50
2018-02-14T03:12:16.769Z,7.50
2018-02-14T03:13:16.708Z,7.10
2018-02-14T03:14:16.640Z,7.10
2018-02-14T03:15:16.576Z,7.40
2018-02-14T03:16:16.509Z,6.90
2018-02-14T03:17:16.445Z,6.90
2018-02-14T03:18:16.379Z,7.40
2018-02-14T03:19:16.320Z,7.50
2018-02-14T03:20:16.250Z,7.40
2018-02-14T03:21:16.186Z,7.00
2018-02-14T03:22:16.123Z,7.20
2018-02-14T03:23:16.057Z,7.30
2018-02-14T03:24:15.991Z,7.20
2018-02-14T03:25:15.928Z,7.20
2018-02-14T03:26:15.864Z,7.20
2018-02-14T03:27:15.795Z,7.40
2018-02-14T03:28:15.735Z,7.50
2018-02-14T03:29:15.663Z,7.70
2018-02-14T03:30:15.603Z,7.30
2018-02-14T03:31:15.537Z,8.00
2018-02-14T03:32:15.471Z,7.30
2018-02-14T03:33:15.406Z,7.70
2018-02-14T03:34:15.339Z,7.80
2018-02-14T03:35:15.276Z,7.30
2018-02-14T03:36:15.209Z,7.00
2018-02-14T03:37:15.146Z,7.50
2018-02-14T03:38:15.081Z,7.40
2018-02-14T03:39:15.015Z,7.50
2018-02-14T03:40:14.950Z,7.90
2018-02-14T03:41:14.885Z,8.00
2018-02-14T03:42:14.819Z,8.00
2018-02-14T03:43:14.756Z,7.50
2018-02-14T03:44:14.689Z,8.10
2018-02-14T03:45:14.625Z,8.00
2018-02-14T03:46:14.567Z,8.00
2018-02-14T03:47:14.494Z,8.50
2018-02-14T03:48:14.431Z,7.80
2018-02-14T03:49:14.366Z,8.20
2018-02-14T03:50:14.301Z,8.80
2018-02-14T03:51:14.235Z,7.90
2018-02-14T03:52:14.171Z,8.00
2018-02-14T03:53:14.107Z,8.60
2018-02-14T03:54:14.039Z,8.30
2018-02-14T03:55:13.975Z,8.00
2018-02-14T03:56:13.911Z,7.90
2018-02-14T03:57:13.845Z,8.20
2018-02-14T03:58:13.782Z,8.30
2018-02-14T03:59:13.716Z,8.10
2018-02-14T04:00:13.650Z,8.40
2018-02-14T04:01:13.585Z,8.10
2018-02-14T04:02:13.519Z,7.70
2018-02-14T04:03:13.457Z,8.40
2018-02-14T04:04:13.390Z,8.50
2018-02-14T04:05:13.325Z,7.60
2018-02-14T04:06:13.259Z,7.60
2018-02-14T04:07:13.195Z,7.80
2018-02-14T04:08:13.134Z,8.40
2018-02-14T04:09:13.068Z,8.00
2018-02-14T04:10:13.000Z,8.00
2018-02-14T04:11:12.935Z,7.10
2018-02-14T04:12:12.870Z,8.40
2018-02-14T04:13:12.805Z,8.20
2018-02-14T04:14:12.740Z,8.10
2018-02-14T04:15:12.675Z,7.70
2018-02-14T04:16:12.608Z,7.50
2018-02-14T04:17:12.544Z,7.20
2018-02-14T04:18:12.481Z,7.60
2018-02-14T04:19:12.418Z,7.40
2018-02-14T04:20:12.348Z,8.20
2018-02-14T04:21:12.285Z,7.50
2018-02-14T04:22:12.220Z,6.80
2018-02-14T04:23:12.156Z,7.80
2018-02-14T04:24:12.092Z,7.20
2018-02-14T04:25:12.025Z,7.00
2018-02-14T04:26:11.962Z,6.90
2018-02-14T04:27:11.896Z,7.20
2018-02-14T04:28:11.833Z,8.20
2018-02-14T04:29:11.768Z,8.40
2018-02-14T04:30:11.700Z,8.20
2018-02-14T04:31:11.634Z,7.90
2018-02-14T04:32:11.570Z,8.20
2018-02-14T04:33:11.516Z,9.40
2018-02-14T04:34:11.440Z,8.40
2018-02-14T04:35:11.374Z,8.30
2018-02-14T04:36:11.308Z,8.50
2018-02-14T04:37:11.245Z,9.00
2018-02-14T04:38:11.180Z,8.80
2018-02-14T04:39:11.114Z,8.80
2018-02-14T04:40:11.048Z,9.60
2018-02-14T04:41:10.984Z,8.90
2018-02-14T04:42:10.919Z,8.60
2018-02-14T04:43:10.856Z,9.40
2018-02-14T04:44:10.788Z,9.00
2018-02-14T04:45:10.722Z,8.40
2018-02-14T04:46:10.657Z,9.00
2018-02-14T04:47:10.593Z,9.20
2018-02-14T04:48:10.529Z,8.20
2018-02-14T04:49:10.464Z,8.20
2018-02-14T04:50:10.397Z,9.20
2018-02-14T04:51:10.333Z,8.30
2018-02-14T04:52:10.267Z,8.90
2018-02-14T04:53:10.205Z,8.70
2018-02-14T04:54:10.134Z,8.70
2018-02-14T04:55:10.070Z,9.30
2018-02-14T04:56:10.006Z,8.70
2018-02-14T04:57:09.942Z,8.90
2018-02-14T04:58:09.873Z,8.60
2018-02-14T04:59:09.808Z,9.10
2018-02-14T05:00:09.749Z,8.60
2018-02-14T05:01:09.679Z,8.70
2018-02-14T05:02:09.613Z,8.80
2018-02-14T05:03:09.556Z,8.10
2018-02-14T05:04:09.484Z,8.60
2018-02-14T05:05:09.417Z,9.20
2018-02-14T05:06:09.351Z,8.80
2018-02-14T05:07:09.288Z,9.10
2018-02-14T05:08:09.221Z,8.70
2018-02-14T05:09:09.160Z,8.50
2018-02-14T05:10:09.092Z,8.70
2018-02-14T05:11:09.026Z,8.70
2018-02-14T05:12:08.961Z,8.80
2018-02-14T05:13:08.896Z,8.80
2018-02-14T05:14:08.830Z,9.00
2018-02-14T05:15:08.771Z,8.50
2018-02-14T05:16:08.700Z,8.60
2018-02-14T05:17:08.635Z,8.50
2018-02-14T05:18:08.570Z,8.70
2018-02-14T05:19:08.505Z,8.50
2018-02-14T05:20:08.442Z,8.60
2018-02-14T05:21:08.374Z,8.40
2018-02-14T05:22:08.312Z,8.90
2018-02-14T05:23:08.245Z,8.20
2018-02-14T05:24:08.181Z,8.40
2018-02-14T05:25:08.115Z,9.00
2018-02-14T05:26:08.055Z,8.00
2018-02-14T05:27:07.985Z,9.00
2018-02-14T05:28:07.920Z,8.60
2018-02-14T05:29:07.853Z,8.50
2018-02-14T05:30:07.790Z,8.10
2018-02-14T05:31:07.725Z,7.80
2018-02-14T05:32:07.696Z,7.30
2018-02-14T05:33:07.606Z,7.70
2018-02-14T05:34:07.533Z,7.80
2018-02-14T05:35:07.465Z,8.00
2018-02-14T05:36:07.406Z,8.10
2018-02-14T05:37:07.338Z,7.00
2018-02-14T05:38:07.270Z,7.20
2018-02-14T05:39:07.207Z,7.00
2018-02-14T05:40:07.141Z,7.30
2018-02-14T05:41:07.080Z,7.30
2018-02-14T05:42:07.012Z,7.20
2018-02-14T05:43:06.948Z,7.50
2018-02-14T05:44:06.884Z,7.40
2018-02-14T05:45:06.819Z,8.00
2018-02-14T05:46:06.755Z,7.70
2018-02-14T05:47:06.689Z,7.60
2018-02-14T05:48:06.625Z,8.30
2018-02-14T05:49:06.559Z,9.10
2018-02-14T05:50:06.493Z,8.30
2018-02-14T05:51:06.429Z,7.80
2018-02-14T05:52:06.366Z,7.20
2018-02-14T05:53:06.300Z,7.40
2018-02-14T05:54:06.234Z,7.20
2018-02-14T05:55:06.171Z,8.50
2018-02-14T05:56:06.106Z,8.00
2018-02-14T05:57:06.046Z,7.80
2018-02-14T05:58:05.975Z,8.00
2018-02-14T05:59:05.914Z,8.20
2018-02-14T06:00:05.848Z,8.10
2018-02-14T06:01:05.782Z,8.00
2018-02-14T06:02:05.718Z,8.40
2018-02-14T06:03:05.653Z,8.10
2018-02-14T06:04:05.588Z,8.00
2018-02-14T06:05:05.523Z,8.00
2018-02-14T06:06:05.459Z,8.40
2018-02-14T06:07:05.397Z,8.20
2018-02-14T06:08:05.331Z,8.20
2018-02-14T06:09:05.264Z,8.30
2018-02-14T06:10:05.198Z,7.50
2018-02-14T06:11:05.139Z,8.00
2018-02-14T06:12:05.070Z,7.70
2018-02-14T06:13:05.006Z,7.80
2018-02-14T06:14:04.941Z,7.90
2018-02-14T06:15:04.876Z,7.80
2018-02-14T06:16:04.813Z,7.30
2018-02-14T06:17:04.747Z,7.80
2018-02-14T06:18:04.682Z,7.30
2018-02-14T06:19:04.617Z,7.30
2018-02-14T06:20:04.552Z,7.90
2018-02-14T06:21:04.488Z,8.50
2018-02-14T06:22:04.423Z,8.70
2018-02-14T06:23:04.361Z,7.80
2018-02-14T06:24:04.294Z,7.60
2018-02-14T06:25:04.231Z,8.10
2018-02-14T06:26:04.164Z,7.90
2018-02-14T06:27:04.099Z,7.50
2018-02-14T06:28:04.034Z,7.80
2018-02-14T06:29:03.970Z,7.40
2018-02-14T06:30:03.905Z,7.90
2018-02-14T06:31:03.841Z,8.20
2018-02-14T06:32:03.777Z,8.20
2018-02-14T06:33:03.712Z,8.10
2018-02-14T06:34:03.683Z,7.50
2018-02-14T06:35:03.581Z,8.30
2018-02-14T06:36:03.517Z,8.50
2018-02-14T06:37:03.453Z,8.00
2018-02-14T06:38:03.388Z,8.30
2018-02-14T06:39:03.322Z,7.40
2018-02-14T06:40:03.264Z,7.20
2018-02-14T06:41:03.195Z,7.80
2018-02-14T06:42:03.128Z,7.70
2018-02-14T06:43:03.063Z,7.90
2018-02-14T06:44:03.004Z,7.80
2018-02-14T06:45:02.939Z,7.40
2018-02-14T06:46:02.900Z,7.80
2018-02-14T06:47:02.806Z,7.60
2018-02-14T06:48:02.741Z,7.80
2018-02-14T06:49:02.715Z,7.50
2018-02-14T06:50:02.613Z,7.50
2018-02-14T06:51:02.548Z,7.80
2018-02-14T06:52:02.484Z,7.80
2018-02-14T06:53:02.418Z,7.20
2018-02-14T06:54:02.354Z,7.60
2018-02-14T06:55:02.292Z,7.50
2018-02-14T06:56:02.226Z,7.40
2018-02-14T06:57:02.160Z,7.60
2018-02-14T06:58:02.094Z,7.70
2018-02-14T06:59:02.031Z,7.80
2018-02-14T07:00:01.968Z,7.40
2018-02-14T07:01:01.901Z,7.50
2018-02-14T07:02:01.835Z,7.30
2018-02-14T07:03:01.772Z,7.00
2018-02-14T07:04:01.707Z,6.90
2018-02-14T07:05:01.642Z,6.60
2018-02-14T07:06:01.578Z,7.70
2018-02-14T07:07:01.514Z,7.20
2018-02-14T07:08:01.454Z,7.10
2018-02-14T07:09:01.388Z,7.50
2018-02-14T07:10:01.321Z,7.30
2018-02-14T07:11:01.257Z,7.10
2018-02-14T07:12:01.191Z,7.40
2018-02-14T07:13:01.131Z,7.30
2018-02-14T07:14:01.061Z,7.50
2018-02-14T07:15:00.999Z,7.40
2018-02-14T07:16:00.933Z,7.70
2018-02-14T07:17:00.869Z,7.70
2018-02-14T07:18:00.805Z,7.70
2018-02-14T07:19:00.739Z,8.20
2018-02-14T07:20:00.675Z,7.70
2018-02-14T07:21:00.618Z,7.40
2018-02-14T07:22:00.547Z,7.90
2018-02-14T07:23:00.480Z,7.40
2018-02-14T07:24:00.418Z,7.80
2018-02-14T07:25:00.353Z,8.20
2018-02-14T07:26:00.288Z,8.40
2018-02-14T07:27:00.224Z,8.60
2018-02-14T07:28:00.160Z,8.60
2018-02-14T07:29:00.096Z,7.70
2018-02-14T07:30:00.035Z,7.70
2018-02-14T07:30:59.965Z,8.10
2018-02-14T07:31:59.902Z,8.30
2018-02-14T07:32:59.835Z,8.20
2018-02-14T07:33:59.773Z,7.30
2018-02-14T07:34:59.709Z,7.90
2018-02-14T07:35:59.645Z,7.80
2018-02-14T07:36:59.582Z,8.60
2018-02-14T07:37:59.515Z,8.40
2018-02-14T07:38:59.452Z,8.20
2018-02-14T07:39:59.387Z,8.60
2018-02-14T07:40:59.325Z,8.20
2018-02-14T07:41:59.259Z,8.10
2018-02-14T07:42:59.193Z,8.30
2018-02-14T07:43:59.167Z,7.80
2018-02-14T07:44:59.066Z,7.50
2018-02-14T07:45:59.001Z,8.20
2018-02-14T07:46:58.936Z,8.20
2018-02-14T07:47:58.875Z,7.80
2018-02-14T07:48:58.809Z,8.10
2018-02-14T07:49:58.746Z,7.80
2018-02-14T07:50:58.682Z,20.60
2018-02-14T07:51:58.616Z,9.00
2018-02-14T07:52:58.553Z,8.10
2018-02-14T07:53:58.488Z,8.10
2018-02-14T07:54:58.425Z,8.50
2018-02-14T07:55:58.360Z,7.90
2018-02-14T07:56:58.296Z,8.00
2018-02-14T07:57:58.231Z,7.80
2018-02-14T07:58:58.167Z,8.10
2018-02-14T07:59:58.103Z,8.10
2018-02-14T08:00:58.040Z,8.20
2018-02-14T08:01:57.980Z,7.50
2018-02-14T08:02:57.912Z,8.60
2018-02-14T08:03:57.847Z,9.80
2018-02-14T08:04:57.783Z,8.30
2018-02-14T08:05:57.719Z,8.10
2018-02-14T08:06:57.656Z,8.10
2018-02-14T08:07:57.591Z,8.00
2018-02-14T08:08:57.527Z,7.80
2018-02-14T08:09:57.463Z,7.70
2018-02-14T08:10:57.402Z,7.70
2018-02-14T08:11:57.335Z,7.90
2018-02-14T08:12:57.272Z,8.10
2018-02-14T08:13:57.207Z,7.80
2018-02-14T08:14:57.145Z,7.70
2018-02-14T08:15:57.082Z,8.10
2018-02-14T08:16:57.016Z,7.60
2018-02-14T08:17:56.951Z,8.00
2018-02-14T08:18:56.891Z,8.00
2018-02-14T08:19:56.826Z,8.00
2018-02-14T08:20:56.773Z,7.70
2018-02-14T08:21:56.698Z,8.10
2018-02-14T08:22:56.632Z,7.80
2018-02-14T08:23:56.570Z,8.00
2018-02-14T08:24:56.507Z,8.20
2018-02-14T08:25:56.441Z,8.10
2018-02-14T08:26:56.379Z,8.20
2018-02-14T08:27:56.319Z,7.70
2018-02-14T08:28:56.252Z,8.30
2018-02-14T08:29:56.185Z,8.30
2018-02-14T08:30:56.123Z,8.00
2018-02-14T08:31:56.060Z,7.80
2018-02-14T08:32:55.995Z,8.20
2018-02-14T08:33:55.931Z,7.90
2018-02-14T08:34:55.868Z,7.90
2018-02-14T08:35:55.808Z,7.80
2018-02-14T08:36:55.742Z,7.90
2018-02-14T08:37:55.680Z,8.00
2018-02-14T08:38:55.614Z,8.30
2018-02-14T08:39:55.550Z,8.70
2018-02-14T08:40:55.492Z,8.20
2018-02-14T08:41:55.422Z,8.40
2018-02-14T08:42:55.364Z,8.60
2018-02-14T08:43:55.303Z,7.80
2018-02-14T08:44:55.235Z,8.60
2018-02-14T08:45:55.180Z,8.80
2018-02-14T08:46:55.105Z,8.80
2018-02-14T08:47:55.041Z,8.80
2018-02-14T08:48:54.978Z,9.60
2018-02-14T08:49:54.914Z,8.90
2018-02-14T08:50:54.854Z,8.30
2018-02-14T08:51:54.833Z,8.50
2018-02-14T08:52:54.727Z,8.50
2018-02-14T08:53:54.783Z,8.80
2018-02-14T08:54:54.600Z,8.30
2018-02-14T08:55:54.536Z,7.80
2018-02-14T08:56:54.471Z,8.00
2018-02-14T08:57:54.407Z,8.10
2018-02-14T08:58:54.345Z,8.20
2018-02-14T08:59:54.279Z,8.60
2018-02-14T09:00:54.217Z,7.80
2018-02-14T09:01:54.153Z,8.20
2018-02-14T09:02:54.100Z,8.20
2018-02-14T09:03:54.026Z,7.60
2018-02-14T09:04:53.966Z,7.60
2018-02-14T09:05:53.899Z,8.60
2018-02-14T09:06:53.837Z,7.60
2018-02-14T09:07:53.774Z,7.60
2018-02-14T09:08:53.713Z,8.30
2018-02-14T09:09:53.673Z,8.60
2018-02-14T09:10:53.583Z,8.10
2018-02-14T09:11:53.522Z,8.00
2018-02-14T09:12:53.457Z,8.50
2018-02-14T09:13:53.395Z,7.30
2018-02-14T09:14:53.332Z,7.70
2018-02-14T09:15:53.270Z,7.30
2018-02-14T09:16:53.208Z,9.30
2018-02-14T09:17:53.144Z,8.70
2018-02-14T09:18:53.077Z,8.20
2018-02-14T09:19:53.021Z,7.70
2018-02-14T09:20:52.953Z,7.30
2018-02-14T09:21:52.889Z,7.40
2018-02-14T09:22:52.831Z,6.90
2018-02-14T09:23:52.764Z,7.30
2018-02-14T09:24:52.702Z,6.90
2018-02-14T09:25:52.638Z,6.30
2018-02-14T09:26:52.576Z,7.00
2018-02-14T09:27:52.511Z,7.30
2018-02-14T09:28:52.450Z,7.10
2018-02-14T09:29:52.387Z,7.10
2018-02-14T09:30:52.327Z,8.00
2018-02-14T09:31:52.264Z,7.30
2018-02-14T09:32:52.199Z,8.30
2018-02-14T09:33:52.135Z,7.10
2018-02-14T09:34:52.072Z,7.60
2018-02-14T09:35:52.012Z,7.30
2018-02-14T09:36:51.951Z,6.90
2018-02-14T09:37:51.884Z,6.90
2018-02-14T09:38:51.821Z,7.00
2018-02-14T09:39:51.761Z,7.50
2018-02-14T09:40:51.696Z,6.90
2018-02-14T09:41:51.632Z,7.00
2018-02-14T09:42:51.569Z,7.60
2018-02-14T09:43:51.509Z,7.00
2018-02-14T09:44:51.449Z,6.80
2018-02-14T09:45:51.385Z,6.80
2018-02-14T09:46:51.318Z,7.00
2018-02-14T09:47:51.255Z,6.90
2018-02-14T09:48:51.195Z,6.80
2018-02-14T09:49:51.138Z,7.10
2018-02-14T09:50:51.072Z,6.90
2018-02-14T09:51:51.007Z,7.00
2018-02-14T09:52:50.944Z,6.50
2018-02-14T09:53:50.888Z,6.80
2018-02-14T09:54:50.817Z,6.50
2018-02-14T09:55:50.757Z,6.40
2018-02-14T09:56:50.693Z,6.20
2018-02-14T09:57:50.632Z,6.30
2018-02-14T09:58:50.569Z,6.50
2018-02-14T09:59:50.511Z,6.60
2018-02-14T10:00:50.444Z,7.00
2018-02-14T10:01:50.381Z,6.70
2018-02-14T10:02:50.319Z,7.10
2018-02-14T10:03:50.252Z,6.90
2018-02-14T10:04:50.193Z,7.20
2018-02-14T10:05:50.176Z,7.30
2018-02-14T10:06:50.067Z,7.20
2018-02-14T10:07:50.002Z,7.40
2018-02-14T10:08:49.950Z,7.10
2018-02-14T10:09:49.880Z,7.50
2018-02-14T10:10:49.814Z,7.60
2018-02-14T10:11:49.752Z,7.70
2018-02-14T10:12:49.689Z,7.30
2018-02-14T10:13:49.630Z,6.80
2018-02-14T10:14:49.566Z,7.20
2018-02-14T10:15:49.506Z,6.30
2018-02-14T10:16:49.442Z,6.80
2018-02-14T10:17:49.380Z,7.10
2018-02-14T10:18:49.320Z,6.60
2018-02-14T10:19:49.253Z,7.50
2018-02-14T10:20:49.190Z,6.70
2018-02-14T10:21:49.127Z,7.30
2018-02-14T10:22:49.063Z,6.80
2018-02-14T10:23:49.004Z,6.60
2018-02-14T10:24:48.945Z,6.60
2018-02-14T10:25:48.877Z,6.60
2018-02-14T10:26:48.817Z,6.10
2018-02-14T10:27:48.759Z,6.70
2018-02-14T10:28:48.689Z,6.30
2018-02-14T10:29:48.628Z,6.00
2018-02-14T10:30:48.565Z,6.50
2018-02-14T10:31:48.504Z,6.40
2018-02-14T10:32:48.440Z,5.90
2018-02-14T10:33:48.377Z,6.10
2018-02-14T10:34:48.317Z,6.20
2018-02-14T10:35:48.250Z,6.00
2018-02-14T10:36:48.194Z,6.50
2018-02-14T10:37:48.128Z,7.10
2018-02-14T10:38:48.066Z,7.00
2018-02-14T10:39:48.003Z,6.60
2018-02-14T10:40:47.945Z,6.90
2018-02-14T10:41:47.880Z,7.30
2018-02-14T10:42:47.815Z,7.60
2018-02-14T10:43:47.753Z,6.70
2018-02-14T10:44:47.689Z,6.90
2018-02-14T10:45:47.632Z,7.10
2018-02-14T10:46:47.565Z,7.40
2018-02-14T10:47:47.502Z,6.80
2018-02-14T10:48:47.441Z,7.70
2018-02-14T10:49:47.377Z,7.90
2018-02-14T10:50:47.315Z,7.50
2018-02-14T10:51:47.254Z,7.60
2018-02-14T10:52:47.190Z,7.60
2018-02-14T10:53:47.128Z,7.30
2018-02-14T10:54:47.067Z,7.30
2018-02-14T10:55:47.003Z,7.70
2018-02-14T10:56:46.943Z,7.80
2018-02-14T10:57:46.878Z,8.20
2018-02-14T10:58:46.815Z,7.80
2018-02-14T10:59:46.753Z,7.40
2018-02-14T11:00:46.691Z,7.40
2018-02-14T11:01:46.627Z,7.50
2018-02-14T11:02:46.567Z,8.10
2018-02-14T11:03:46.507Z,7.50
2018-02-14T11:04:46.441Z,7.10
2018-02-14T11:05:46.380Z,7.30
2018-02-14T11:06:46.318Z,7.10
2018-02-14T11:07:46.253Z,7.60
2018-02-14T11:08:46.194Z,7.00
2018-02-14T11:09:46.129Z,7.70
2018-02-14T11:10:46.068Z,6.80
2018-02-14T11:11:46.006Z,7.50
2018-02-14T11:12:45.945Z,7.30
2018-02-14T11:13:45.881Z,6.90
2018-02-14T11:14:45.820Z,6.70
2018-02-14T11:15:45.760Z,7.00
2018-02-14T11:16:45.731Z,7.00
2018-02-14T11:17:45.633Z,7.10
2018-02-14T11:18:45.575Z,7.20
2018-02-14T11:19:45.511Z,7.60
2018-02-14T11:20:45.450Z,7.30
2018-02-14T11:21:45.387Z,7.50
2018-02-14T11:22:45.326Z,7.70
2018-02-14T11:23:45.263Z,7.50
2018-02-14T11:24:45.201Z,6.40
2018-02-14T11:25:45.155Z,6.80
2018-02-14T11:26:45.080Z,8.60
2018-02-14T11:27:45.018Z,7.60
2018-02-14T11:28:44.956Z,7.10
2018-02-14T11:29:44.894Z,6.90
2018-02-14T11:30:44.831Z,7.30
2018-02-14T11:31:44.768Z,7.70
2018-02-14T11:32:44.708Z,7.40
2018-02-14T11:33:44.647Z,6.90
2018-02-14T11:34:44.583Z,6.70
2018-02-14T11:35:44.520Z,7.30
2018-02-14T11:36:44.511Z,7.60
2018-02-14T11:37:44.405Z,6.90
2018-02-14T11:38:44.338Z,7.70
2018-02-14T11:39:44.275Z,7.80
2018-02-14T11:40:44.217Z,7.90
2018-02-14T11:41:44.153Z,7.60
2018-02-14T11:42:44.104Z,7.20
2018-02-14T11:43:44.030Z,7.20
2018-02-14T11:44:43.971Z,7.10
2018-02-14T11:45:43.911Z,7.70
2018-02-14T11:46:43.848Z,7.70
2018-02-14T11:47:43.786Z,7.90
2018-02-14T11:48:43.728Z,7.90
2018-02-14T11:49:43.663Z,7.90
2018-02-14T11:50:43.602Z,8.10
2018-02-14T11:51:43.543Z,8.40
2018-02-14T11:52:43.481Z,8.40
2018-02-14T11:53:43.418Z,8.00
2018-02-14T11:54:43.358Z,8.70
2018-02-14T11:55:43.296Z,8.00
2018-02-14T11:56:43.236Z,7.90
2018-02-14T11:57:43.175Z,8.30
2018-02-14T11:58:43.113Z,7.50
2018-02-14T11:59:43.052Z,8.10
2018-02-14T12:00:42.992Z,8.30
2018-02-14T12:01:42.929Z,8.00
2018-02-14T12:02:42.868Z,8.00
2018-02-14T12:03:42.809Z,7.80
2018-02-14T12:04:42.748Z,8.40
2018-02-14T12:05:42.687Z,7.80
2018-02-14T12:06:42.625Z,7.70
2018-02-14T12:07:42.565Z,8.20
2018-02-14T12:08:42.503Z,8.00
2018-02-14T12:09:42.440Z,7.60
2018-02-14T12:10:42.380Z,7.10
2018-02-14T12:11:42.322Z,7.60
2018-02-14T12:12:42.260Z,7.90
2018-02-14T12:13:42.204Z,7.70
2018-02-14T12:14:42.142Z,8.20
2018-02-14T12:15:42.075Z,7.50
2018-02-14T12:16:42.016Z,7.60
2018-02-14T12:17:41.952Z,7.60
2018-02-14T12:18:41.894Z,7.70
2018-02-14T12:19:41.831Z,7.90
2018-02-14T12:20:41.775Z,7.70
2018-02-14T12:21:41.710Z,7.80
2018-02-14T12:22:41.650Z,7.10
2018-02-14T12:23:41.589Z,7.50
2018-02-14T12:24:41.528Z,8.00
2018-02-14T12:25:41.465Z,7.70
2018-02-14T12:26:41.408Z,7.10
2018-02-14T12:27:41.344Z,7.20
2018-02-14T12:28:41.285Z,7.50
2018-02-14T12:29:41.225Z,7.00
2018-02-14T12:30:41.169Z,7.40
2018-02-14T12:31:41.102Z,7.50
2018-02-14T12:32:41.040Z,7.80
2018-02-14T12:33:40.978Z,7.10
2018-02-14T12:34:40.918Z,7.10
2018-02-14T12:35:40.859Z,7.30
2018-02-14T12:36:40.797Z,6.90
2018-02-14T12:37:40.741Z,7.30
2018-02-14T12:38:40.675Z,6.80
2018-02-14T12:39:40.618Z,7.20
2018-02-14T12:40:40.556Z,7.50
2018-02-14T12:41:40.493Z,7.40
2018-02-14T12:42:40.432Z,7.10
2018-02-14T12:43:40.375Z,6.60
2018-02-14T12:44:40.316Z,6.90
2018-02-14T12:45:40.252Z,7.20
2018-02-14T12:46:40.193Z,6.60
2018-02-14T12:47:40.131Z,7.20
2018-02-14T12:48:40.071Z,6.90
2018-02-14T12:49:40.010Z,7.20
2018-02-14T12:50:39.955Z,7.40
2018-02-14T12:51:39.890Z,7.00
2018-02-14T12:52:39.832Z,7.10
2018-02-14T12:53:39.768Z,7.20
2018-02-14T12:54:39.710Z,7.90
2018-02-14T12:55:39.646Z,8.80
2018-02-14T12:56:39.587Z,8.10
2018-02-14T12:57:39.531Z,7.40
2018-02-14T12:58:39.468Z,7.90
2018-02-14T12:59:39.407Z,7.30
2018-02-14T13:00:39.347Z,7.00
2018-02-14T13:01:39.285Z,7.20
2018-02-14T13:02:39.224Z,7.40
2018-02-14T13:03:39.164Z,7.40
2018-02-14T13:04:39.104Z,7.10
2018-02-14T13:05:39.044Z,7.00
2018-02-14T13:06:38.992Z,6.80
2018-02-14T13:07:38.924Z,7.20
2018-02-14T13:08:38.864Z,7.20
2018-02-14T13:09:38.802Z,7.30
2018-02-14T13:10:38.742Z,6.80
2018-02-14T13:11:38.684Z,6.70
2018-02-14T13:12:38.624Z,7.10
2018-02-14T13:13:38.562Z,7.10
2018-02-14T13:14:38.501Z,7.10
2018-02-14T13:15:38.443Z,7.20
2018-02-14T13:16:38.382Z,7.20
2018-02-14T13:17:38.321Z,7.40